Time;durP1;ratioP1;P1;durP2;ratioP2;P2;SDS_P1;SDS_P2;PMS_P1;PMS_P2;Temp;Humidity;BMP_temperature;BMP_pressure;BME280_temperature;BME280_humidity;BME280_pressure;Samples;Min_cycle;Max_cycle;Signal;HPM_P1;HPM_P2
2024/02/07 00:01:19;;;;;;;5.05;1.90;;;;;;;5.64;100.00;96990.97;5021905;28;20065;-62
2024/02/07 00:03:45;;;;;;;4.05;1.90;;;;;;;5.67;100.00;96983.25;5018865;28;20054;-62
2024/02/07 00:06:12;;;;;;;4.38;1.65;;;;;;;5.94;100.00;96982.03;5012169;28;20102;-62
2024/02/07 00:08:39;;;;;;;4.88;1.50;;;;;;;6.04;100.00;96978.81;5013171;28;20568;-62
2024/02/07 00:11:06;;;;;;;3.88;1.75;;;;;;;6.01;100.00;96974.66;5018415;28;21493;-62
2024/02/07 00:13:33;;;;;;;3.47;1.35;;;;;;;5.88;100.00;96959.59;5025223;28;20044;-63
2024/02/07 00:16:00;;;;;;;4.05;1.65;;;;;;;5.94;100.00;96950.59;5019367;28;20037;-61
2024/02/07 00:18:26;;;;;;;6.63;1.80;;;;;;;6.01;100.00;96955.03;5011399;28;20042;-62
2024/02/07 00:20:53;;;;;;;3.92;1.63;;;;;;;5.85;100.00;96947.44;5014705;28;20069;-63
2024/02/07 00:23:20;;;;;;;5.28;1.60;;;;;;;5.73;100.00;96949.28;5023728;28;20052;-63
2024/02/07 00:25:46;;;;;;;4.65;1.75;;;;;;;5.76;100.00;96938.09;5016440;28;20048;-63
2024/02/07 00:28:13;;;;;;;6.97;1.83;;;;;;;5.62;100.00;96937.47;5027084;28;20037;-63
2024/02/07 00:30:40;;;;;;;4.03;1.63;;;;;;;5.56;100.00;96958.00;5024442;28;20435;-62
2024/02/07 00:33:06;;;;;;;4.03;1.52;;;;;;;5.64;100.00;96951.47;5026173;28;20369;-62
2024/02/07 00:35:33;;;;;;;3.92;1.58;;;;;;;5.79;100.00;96953.72;5018566;28;20045;-62
2024/02/07 00:38:00;;;;;;;3.97;1.60;;;;;;;5.72;100.00;96939.59;5020827;28;20050;-62
2024/02/07 00:40:27;;;;;;;5.07;1.77;;;;;;;5.56;100.00;96941.06;5027047;28;20041;-62
2024/02/07 00:42:54;;;;;;;3.45;1.50;;;;;;;5.53;100.00;96939.66;5025224;28;20053;-62
2024/02/07 00:45:21;;;;;;;4.85;1.63;;;;;;;5.59;100.00;96921.81;5014074;28;20030;-62
2024/02/07 00:47:47;;;;;;;7.15;1.80;;;;;;;5.66;100.00;96927.06;5017718;28;20045;-62
2024/02/07 00:50:15;;;;;;;4.70;1.60;;;;;;;5.68;100.00;96920.41;5025019;28;20080;-63
2024/02/07 00:52:41;;;;;;;3.17;1.40;;;;;;;5.78;100.00;96914.47;5026494;28;20091;-62
2024/02/07 00:55:09;;;;;;;3.45;1.40;;;;;;;5.82;100.00;96910.28;5024223;28;20056;-62
2024/02/07 00:57:36;;;;;;;4.22;1.65;;;;;;;5.79;100.00;96905.38;5017185;28;20049;-62
2024/02/07 01:00:05;;;;;;;4.28;1.60;;;;;;;5.77;100.00;96904.78;5021187;28;20049;-63
2024/02/07 01:02:31;;;;;;;4.25;1.40;;;;;;;5.80;100.00;96900.81;5026855;28;20037;-63
2024/02/07 01:04:58;;;;;;;6.18;1.83;;;;;;;5.87;100.00;96901.53;5021689;28;20041;-61
2024/02/07 01:07:24;;;;;;;5.10;1.42;;;;;;;5.88;100.00;96895.09;5021927;28;20412;-61
2024/02/07 01:09:51;;;;;;;4.90;1.80;;;;;;;5.85;100.00;96906.31;5025613;28;20046;-62
2024/02/07 01:12:19;;;;;;;5.10;1.50;;;;;;;5.79;100.00;96897.31;5024560;28;20052;-62
2024/02/07 01:14:45;;;;;;;4.40;1.35;;;;;;;5.73;100.00;96893.72;5021783;28;20045;-62
2024/02/07 01:17:12;;;;;;;3.70;1.58;;;;;;;5.67;100.00;96894.63;5027347;28;20049;-61
2024/02/07 01:19:38;;;;;;;5.47;1.60;;;;;;;5.72;100.00;96883.19;5018695;28;20052;-61
2024/02/07 01:22:05;;;;;;;3.80;1.60;;;;;;;5.76;100.00;96875.47;5024659;28;20038;-62
2024/02/07 01:24:32;;;;;;;3.60;1.48;;;;;;;5.66;100.00;96873.34;5025577;28;20045;-62
2024/02/07 01:26:58;;;;;;;4.65;1.80;;;;;;;5.68;100.00;96877.44;5019084;28;20698;-62
2024/02/07 01:29:25;;;;;;;6.70;2.00;;;;;;;5.63;100.00;96866.59;5021665;28;20095;-62
2024/02/07 01:31:52;;;;;;;4.32;1.65;;;;;;;5.59;100.00;96863.56;5029316;28;20673;-62
2024/02/07 01:34:18;;;;;;;3.97;1.30;;;;;;;5.58;100.00;96855.72;5026291;28;20073;-61
2024/02/07 01:36:46;;;;;;;5.45;1.65;;;;;;;5.63;100.00;96855.03;5026500;28;20187;-62
2024/02/07 01:39:17;;;;;;;4.43;1.63;;;;;;;5.59;100.00;96866.25;5022457;28;20046;-62
2024/02/07 01:41:56;;;;;;;2.78;1.38;;;;;;;5.60;100.00;96858.97;5027111;28;20041;-62
2024/02/07 01:44:24;;;;;;;3.30;1.25;;;;;;;5.59;100.00;96863.56;5016777;28;20053;-61
2024/02/07 01:46:52;;;;;;;5.60;1.63;;;;;;;5.62;100.00;96873.00;5023914;28;20138;-62
2024/02/07 01:49:19;;;;;;;5.85;1.95;;;;;;;5.73;100.00;96864.16;5025067;28;20904;-62
2024/02/07 01:51:47;;;;;;;5.72;1.75;;;;;;;5.76;100.00;96857.50;5023194;28;20041;-62
2024/02/07 01:54:14;;;;;;;5.90;1.95;;;;;;;5.73;100.00;96860.63;5016014;28;20500;-62
2024/02/07 01:56:41;;;;;;;3.65;1.58;;;;;;;5.72;100.00;96856.31;5017882;28;20068;-62
2024/02/07 01:59:08;;;;;;;5.50;1.60;;;;;;;5.81;100.00;96849.53;5020627;28;20036;-61
2024/02/07 02:01:38;;;;;;;3.78;1.98;;;;;;;5.80;100.00;96847.91;5029441;28;20046;-62
2024/02/07 02:04:05;;;;;;;6.00;1.73;;;;;;;5.91;100.00;96837.38;5027472;28;20064;-62
2024/02/07 02:06:32;;;;;;;5.50;2.05;;;;;;;5.89;100.00;96837.63;5025514;28;20847;-62
2024/02/07 02:08:59;;;;;;;5.43;2.13;;;;;;;5.95;100.00;96836.69;5021933;28;20050;-62
2024/02/07 02:11:32;;;;;;;6.47;1.90;;;;;;;6.01;100.00;96842.16;5007971;28;20513;-62
2024/02/07 02:13:59;;;;;;;3.42;1.45;;;;;;;6.17;100.00;96844.16;5015617;28;20524;-62
2024/02/07 02:16:26;;;;;;;4.13;1.60;;;;;;;6.20;100.00;96840.19;5020915;28;20481;-61
2024/02/07 02:18:53;;;;;;;5.72;2.55;;;;;;;6.00;100.00;96827.91;5024362;28;20663;-62
2024/02/07 02:21:24;;;;;;;4.45;1.77;;;;;;;5.94;100.00;96824.28;5021004;28;20053;-62
2024/02/07 02:24:05;;;;;;;8.45;2.63;;;;;;;5.94;100.00;96826.19;5019637;28;20069;-62
2024/02/07 02:26:53;;;;;;;5.80;2.17;;;;;;;6.13;100.00;96818.81;5015366;28;20046;-61
2024/02/07 02:29:26;;;;;;;5.03;1.65;;;;;;;6.10;100.00;96819.28;5022742;28;20049;-62
2024/02/07 02:31:56;;;;;;;3.60;1.55;;;;;;;6.07;100.00;96796.38;5022372;28;20049;-61
2024/02/07 02:34:23;;;;;;;5.35;1.70;;;;;;;6.02;100.00;96788.19;5023161;28;20654;-62
2024/02/07 02:36:51;;;;;;;5.05;1.50;;;;;;;5.99;100.00;96784.09;5022384;28;20042;-62
2024/02/07 02:39:17;;;;;;;4.22;1.63;;;;;;;6.00;100.00;96771.47;5022211;28;20049;-62
2024/02/07 02:41:44;;;;;;;4.22;1.50;;;;;;;5.99;100.00;96775.22;5021169;28;20053;-62
2024/02/07 02:44:11;;;;;;;3.47;1.42;;;;;;;6.15;100.00;96772.88;5024253;28;20045;-62
2024/02/07 02:46:38;;;;;;;5.90;1.55;;;;;;;6.23;100.00;96767.94;5029818;28;20036;-62
2024/02/07 02:49:05;;;;;;;4.20;1.48;;;;;;;6.43;100.00;96766.69;5014057;28;20120;-62
2024/02/07 02:51:32;;;;;;;4.43;1.45;;;;;;;6.57;100.00;96761.84;5009911;28;20046;-62
2024/02/07 02:53:58;;;;;;;3.67;1.63;;;;;;;6.65;100.00;96763.34;5019573;28;20440;-62
2024/02/07 02:56:26;;;;;;;2.92;1.50;;;;;;;6.73;100.00;96754.03;5018115;28;20041;-62
2024/02/07 02:58:52;;;;;;;4.25;1.38;;;;;;;6.70;100.00;96754.50;5022669;28;20397;-62
2024/02/07 03:01:19;;;;;;;3.58;1.20;;;;;;;6.68;100.00;96740.50;5019259;28;20033;-62
2024/02/07 03:03:53;;;;;;;3.67;1.42;;;;;;;6.67;100.00;96750.44;5017743;28;20052;-62
2024/02/07 03:06:37;;;;;;;3.97;1.67;;;;;;;6.73;100.00;96743.28;5020778;28;20034;-62
2024/02/07 03:09:07;;;;;;;5.03;1.25;;;;;;;6.88;100.00;96746.25;5020339;28;20045;-62
2024/02/07 03:11:35;;;;;;;3.40;1.52;;;;;;;6.89;100.00;96729.03;5020399;28;20044;-62
2024/02/07 03:14:04;;;;;;;3.90;1.55;;;;;;;6.80;100.00;96735.06;5025172;28;20041;-62
2024/02/07 03:16:31;;;;;;;3.33;1.55;;;;;;;6.83;100.00;96748.84;5022063;28;20046;-62
2024/02/07 03:18:58;;;;;;;3.90;1.38;;;;;;;6.84;100.00;96733.50;5017006;28;20052;-62
2024/02/07 03:21:28;;;;;;;4.55;1.50;;;;;;;6.85;100.00;96737.81;5019960;28;20044;-61
2024/02/07 03:23:55;;;;;;;3.85;1.50;;;;;;;6.87;100.00;96736.53;5017021;28;20488;-61
2024/02/07 03:26:23;;;;;;;3.03;1.45;;;;;;;6.94;100.00;96738.25;5019888;28;20687;-62
2024/02/07 03:28:51;;;;;;;4.05;1.40;;;;;;;6.94;100.00;96733.69;5014570;28;20045;-61
2024/02/07 03:31:18;;;;;;;3.70;1.10;;;;;;;6.93;100.00;96732.03;5020791;28;20049;-62
2024/02/07 03:33:45;;;;;;;3.08;1.40;;;;;;;6.97;100.00;96730.50;5018305;28;20052;-60
2024/02/07 03:36:11;;;;;;;5.63;1.52;;;;;;;7.04;100.00;96727.63;5023391;28;20255;-62
2024/02/07 03:38:38;;;;;;;4.32;1.63;;;;;;;7.06;100.00;96733.59;5026545;28;20123;-61
2024/02/07 03:41:05;;;;;;;5.72;1.90;;;;;;;7.19;100.00;96731.66;5019711;28;20041;-62
2024/02/07 03:43:33;;;;;;;3.42;1.23;;;;;;;7.13;100.00;96731.56;5019966;28;20117;-62
2024/02/07 03:46:05;;;;;;;3.13;1.50;;;;;;;7.11;100.00;96728.28;5017029;28;20045;-61
2024/02/07 03:48:36;;;;;;;3.33;1.40;;;;;;;7.10;100.00;96715.91;5022709;28;20092;-62
2024/02/07 03:51:08;;;;;;;7.07;2.17;;;;;;;7.03;100.00;96723.31;5024901;28;20112;-61
2024/02/07 03:53:34;;;;;;;6.40;1.73;;;;;;;7.00;100.00;96721.09;5024693;28;20057;-61
2024/02/07 03:56:01;;;;;;;4.60;1.70;;;;;;;7.03;100.00;96708.00;5010232;28;20052;-61
2024/02/07 03:58:28;;;;;;;3.38;1.58;;;;;;;7.05;100.00;96707.75;5021517;28;20057;-62
2024/02/07 04:00:55;;;;;;;3.72;1.38;;;;;;;7.11;100.00;96701.38;5014667;28;20053;-61
2024/02/07 04:03:21;;;;;;;3.70;1.63;;;;;;;7.09;100.00;96716.16;5027007;28;20059;-61
2024/02/07 04:05:48;;;;;;;4.43;1.80;;;;;;;7.04;100.00;96716.88;5022606;28;20037;-61
2024/02/07 04:08:15;;;;;;;6.70;1.85;;;;;;;7.08;100.00;96703.75;5022846;28;20567;-62
2024/02/07 04:10:42;;;;;;;2.97;1.70;;;;;;;7.11;100.00;96708.66;5019395;28;20453;-62
2024/02/07 05:16:11;;;;;;;6.00;1.75;;;;;;;6.78;100.00;96664.53;5016466;28;20038;-62
2024/02/07 05:18:38;;;;;;;2.97;1.23;;;;;;;6.75;100.00;96655.88;5032749;28;20493;-61
2024/02/07 05:21:11;;;;;;;5.90;1.35;;;;;;;6.72;100.00;96642.09;5013945;28;20045;-62
2024/02/07 05:23:38;;;;;;;4.60;1.70;;;;;;;6.70;100.00;96633.44;5027826;28;20052;-62
2024/02/07 05:26:05;;;;;;;3.28;1.25;;;;;;;6.73;100.00;96644.56;5027892;28;20544;-61
2024/02/07 05:28:32;;;;;;;5.38;1.52;;;;;;;6.79;100.00;96641.94;5026087;28;20069;-61
2024/02/07 05:30:58;;;;;;;2.45;1.17;;;;;;;6.80;100.00;96646.25;5028661;28;20103;-62
2024/02/07 05:33:25;;;;;;;4.80;1.50;;;;;;;6.88;100.00;96654.75;5030204;28;20085;-61
2024/02/07 05:35:52;;;;;;;4.72;1.73;;;;;;;6.85;100.00;96643.63;5035319;28;20056;-62
2024/02/07 05:38:19;;;;;;;3.53;1.50;;;;;;;6.87;100.00;96647.75;5029167;28;20752;-62
2024/02/07 05:40:45;;;;;;;4.65;1.75;;;;;;;6.70;100.00;96642.34;5019720;28;20060;-62
2024/02/07 05:43:12;;;;;;;4.28;1.70;;;;;;;6.64;100.00;96629.88;5024533;28;20046;-62
2024/02/07 05:45:38;;;;;;;5.15;1.70;;;;;;;6.62;100.00;96632.00;5033573;28;20052;-62
2024/02/07 05:48:05;;;;;;;4.35;1.40;;;;;;;6.56;100.00;96625.72;5023391;28;20048;-62
2024/02/07 05:50:32;;;;;;;5.20;1.90;;;;;;;6.63;100.00;96617.47;5020564;28;20037;-62
2024/02/07 05:52:58;;;;;;;5.18;1.60;;;;;;;6.67;100.00;96615.94;5024791;28;20037;-62
2024/02/07 05:55:25;;;;;;;5.85;2.20;;;;;;;6.62;100.00;96608.63;5023751;28;20033;-62
2024/02/07 05:57:51;;;;;;;5.10;1.55;;;;;;;6.63;100.00;96602.16;5029158;28;20455;-61
2024/02/07 06:00:18;;;;;;;4.05;1.77;;;;;;;6.56;100.00;96609.56;5030155;28;20049;-61
2024/02/07 06:02:45;;;;;;;4.93;2.20;;;;;;;6.56;100.00;96606.09;5023742;28;20049;-62
2024/02/07 06:05:11;;;;;;;3.67;1.98;;;;;;;6.62;100.00;96592.47;5029072;28;20440;-62
2024/02/07 06:07:38;;;;;;;3.80;2.00;;;;;;;6.59;100.00;96590.25;5017748;28;20689;-62
2024/02/07 06:10:05;;;;;;;4.75;1.65;;;;;;;6.61;100.00;96582.78;5018850;28;20069;-62
2024/02/07 06:12:33;;;;;;;6.10;2.10;;;;;;;6.56;100.00;96587.25;5032632;28;20037;-62
2024/02/07 06:15:00;;;;;;;2.78;1.40;;;;;;;6.61;100.00;96585.47;5032171;28;20049;-62
2024/02/07 06:17:28;;;;;;;5.47;2.10;;;;;;;6.62;100.00;96581.72;5028946;28;20034;-62
2024/02/07 06:19:55;;;;;;;4.30;2.08;;;;;;;6.62;100.00;96579.03;5022358;28;20701;-62
2024/02/07 06:22:22;;;;;;;4.05;1.80;;;;;;;6.61;100.00;96576.56;5027932;28;20515;-62
2024/02/07 06:24:49;;;;;;;6.70;2.45;;;;;;;6.60;100.00;96583.03;5032615;28;20639;-61
2024/02/07 06:27:15;;;;;;;4.40;1.92;;;;;;;6.64;100.00;96571.50;5032983;28;20034;-63
2024/02/07 06:29:41;;;;;;;4.65;2.47;;;;;;;6.66;100.00;96576.66;5028544;28;20091;-63
2024/02/07 06:32:09;;;;;;;5.32;2.42;;;;;;;6.71;100.00;96576.72;5031079;28;20107;-63
2024/02/07 06:34:36;;;;;;;6.55;2.25;;;;;;;6.61;100.00;96577.41;5027203;28;20037;-62
2024/02/07 06:37:03;;;;;;;5.97;2.53;;;;;;;6.70;100.00;96593.09;5017443;28;20614;-62
2024/02/07 06:39:30;;;;;;;5.10;2.25;;;;;;;6.73;100.00;96587.22;5021453;28;20103;-62
2024/02/07 06:41:56;;;;;;;4.88;2.33;;;;;;;6.73;100.00;96585.38;5024895;28;20045;-63
2024/02/07 06:44:23;;;;;;;4.88;1.85;;;;;;;6.74;100.00;96588.84;5020264;28;20057;-63
2024/02/07 06:46:49;;;;;;;4.93;2.70;;;;;;;6.68;100.00;96581.78;5019675;28;20050;-62
2024/02/07 06:49:16;;;;;;;5.82;2.33;;;;;;;6.69;100.00;96586.09;5025372;28;20037;-63
2024/02/07 06:51:43;;;;;;;3.67;2.10;;;;;;;6.61;100.00;96590.84;5027661;28;20060;-63
2024/02/07 06:54:10;;;;;;;5.35;2.17;;;;;;;6.68;100.00;96590.69;5022736;28;20047;-63
2024/02/07 06:56:37;;;;;;;4.28;2.15;;;;;;;6.64;100.00;96586.84;5025159;28;20037;-62
2024/02/07 06:59:03;;;;;;;5.00;2.38;;;;;;;6.65;100.00;96596.53;5020025;28;20055;-63
2024/02/07 07:01:30;;;;;;;5.97;2.55;;;;;;;6.69;100.00;96591.47;5022926;28;20647;-62
2024/02/07 07:03:57;;;;;;;5.47;2.22;;;;;;;6.63;100.00;96596.78;5027804;28;20067;-62
2024/02/07 07:06:26;;;;;;;6.38;2.53;;;;;;;6.63;100.00;96604.84;5029689;28;20119;-62
2024/02/07 07:08:53;;;;;;;5.97;2.33;;;;;;;6.60;100.00;96605.34;5020277;28;20058;-63
2024/02/07 07:11:19;;;;;;;5.80;2.70;;;;;;;6.65;100.00;96604.63;5020637;28;20053;-62
2024/02/07 07:13:46;;;;;;;4.50;2.40;;;;;;;6.69;100.00;96605.75;5030287;28;20571;-62
2024/02/07 07:16:12;;;;;;;4.00;1.95;;;;;;;6.78;100.00;96611.50;5022925;28;20187;-63
2024/02/07 07:18:39;;;;;;;6.15;2.53;;;;;;;6.76;100.00;96603.72;5022467;28;20069;-64
2024/02/07 07:21:08;;;;;;;4.35;1.95;;;;;;;6.84;100.00;96594.41;5020729;28;20045;-63
2024/02/07 07:23:35;;;;;;;7.18;2.42;;;;;;;6.75;100.00;96594.00;5011917;28;20068;-63
2024/02/07 07:26:01;;;;;;;10.18;2.22;;;;;;;6.75;100.00;96580.53;5022085;28;21777;-63
2024/02/07 07:28:28;;;;;;;6.35;2.72;;;;;;;6.74;100.00;96576.22;5019722;28;20045;-63
2024/02/07 07:30:55;;;;;;;8.05;2.90;;;;;;;6.72;100.00;96572.97;5025295;28;20049;-63
2024/02/07 07:33:23;;;;;;;6.00;2.22;;;;;;;6.75;100.00;96579.75;5015885;28;20413;-63
2024/02/07 07:35:50;;;;;;;6.95;2.13;;;;;;;6.79;100.00;96578.19;5020651;28;20049;-63
2024/02/07 07:38:17;;;;;;;4.78;2.25;;;;;;;6.74;100.00;96581.59;5023266;28;20042;-63
2024/02/07 07:40:43;;;;;;;6.20;2.22;;;;;;;6.80;100.00;96579.81;5018336;28;20420;-63
2024/02/07 07:43:10;;;;;;;6.40;2.10;;;;;;;6.85;100.00;96577.19;5018144;28;20045;-63
2024/02/07 07:45:37;;;;;;;3.30;2.08;;;;;;;6.85;100.00;96577.19;5024221;28;20047;-63
2024/02/07 07:48:04;;;;;;;6.15;2.38;;;;;;;6.90;100.00;96571.06;5023924;28;20527;-63
2024/02/07 07:50:31;;;;;;;5.80;2.45;;;;;;;6.95;100.00;96570.31;5019759;28;20056;-63
2024/02/07 07:52:57;;;;;;;6.05;2.30;;;;;;;6.98;100.00;96561.75;5025392;28;20049;-63
2024/02/07 07:55:24;;;;;;;4.97;2.38;;;;;;;6.93;100.00;96557.09;5028467;28;20563;-63
2024/02/07 07:57:51;;;;;;;6.28;2.40;;;;;;;6.99;100.00;96560.69;5022557;28;20045;-62
2024/02/07 08:00:17;;;;;;;9.60;2.33;;;;;;;7.01;100.00;96559.38;5017060;28;20058;-63
2024/02/07 08:02:44;;;;;;;4.25;2.25;;;;;;;7.04;100.00;96555.34;5019185;28;20397;-63
2024/02/07 08:05:11;;;;;;;5.05;1.85;;;;;;;7.10;100.00;96565.16;5023541;28;20053;-63
2024/02/07 08:07:38;;;;;;;7.65;2.22;;;;;;;7.04;100.00;96558.06;5028294;28;20144;-63
2024/02/07 08:10:05;;;;;;;6.00;2.53;;;;;;;6.95;100.00;96555.00;5026490;28;20092;-63
2024/02/07 08:12:31;;;;;;;7.50;2.58;;;;;;;6.94;100.00;96571.38;5022003;28;20457;-63
2024/02/07 08:14:58;;;;;;;5.18;2.42;;;;;;;6.93;100.00;96567.06;5017437;28;20612;-62
2024/02/07 08:17:24;;;;;;;8.15;2.95;;;;;;;6.95;100.00;96564.94;5011728;28;20093;-62
2024/02/07 08:19:51;;;;;;;5.28;2.42;;;;;;;6.97;100.00;96557.44;5012016;28;20057;-62
2024/02/07 08:22:18;;;;;;;5.57;3.13;;;;;;;7.02;100.00;96563.72;5028206;28;20064;-63
2024/02/07 08:24:44;;;;;;;4.32;2.15;;;;;;;7.05;100.00;96561.56;5021937;28;20421;-62
2024/02/07 08:27:11;;;;;;;7.68;2.45;;;;;;;7.08;100.00;96558.38;5022312;28;20056;-63
2024/02/07 08:29:37;;;;;;;8.25;2.90;;;;;;;7.19;100.00;96564.72;5016501;28;20046;-62
2024/02/07 08:32:04;;;;;;;5.32;2.20;;;;;;;7.19;100.00;96562.81;5016682;28;20050;-63
2024/02/07 08:34:31;;;;;;;5.28;2.30;;;;;;;7.29;100.00;96557.56;5016111;28;20061;-63
2024/02/07 08:36:58;;;;;;;7.43;2.80;;;;;;;7.47;100.00;96558.31;5019375;28;20046;-63
2024/02/07 08:39:24;;;;;;;5.82;2.75;;;;;;;7.46;100.00;96554.00;5026740;28;20113;-62
2024/02/07 08:41:51;;;;;;;7.65;2.60;;;;;;;7.39;100.00;96554.19;5024603;28;20593;-63
2024/02/07 08:44:17;;;;;;;5.90;2.40;;;;;;;7.44;100.00;96564.19;5030845;28;20787;-63
2024/02/07 08:46:46;;;;;;;5.15;2.10;;;;;;;7.53;100.00;96556.50;5020713;28;20659;-63
2024/02/07 08:49:16;;;;;;;4.97;2.40;;;;;;;7.44;100.00;96556.13;5032689;28;20053;-63
2024/02/07 08:51:43;;;;;;;5.93;1.92;;;;;;;7.53;100.00;96557.28;5027956;28;20106;-63
2024/02/07 08:54:09;;;;;;;6.15;2.50;;;;;;;7.50;100.00;96541.66;5023674;28;20184;-63
2024/02/07 08:56:36;;;;;;;4.65;2.40;;;;;;;7.57;100.00;96546.84;5034862;28;20052;-63
2024/02/07 08:59:03;;;;;;;7.47;2.55;;;;;;;7.59;100.00;96538.50;5035147;28;20576;-63
2024/02/07 09:01:29;;;;;;;5.22;2.20;;;;;;;7.68;100.00;96539.69;5037239;28;20184;-63
2024/02/07 09:03:56;;;;;;;5.20;2.20;;;;;;;7.75;100.00;96540.31;5033390;28;20518;-63
2024/02/07 09:06:22;;;;;;;6.85;2.75;;;;;;;7.89;100.00;96537.19;5038087;28;20513;-63
2024/02/07 09:08:49;;;;;;;5.47;2.78;;;;;;;7.93;100.00;96536.41;5027393;28;20497;-63
2024/02/07 09:11:15;;;;;;;5.15;2.00;;;;;;;8.07;100.00;96530.59;5028532;28;20141;-64
2024/02/07 09:13:42;;;;;;;6.47;2.33;;;;;;;8.09;100.00;96525.78;5032160;28;20061;-64
2024/02/07 09:16:08;;;;;;;7.93;2.17;;;;;;;8.27;100.00;96518.34;5023233;28;20064;-63
2024/02/07 09:18:36;;;;;;;5.00;2.10;;;;;;;8.41;100.00;96516.84;5036731;28;20045;-62
2024/02/07 09:21:03;;;;;;;4.43;2.25;;;;;;;8.56;100.00;96518.84;5024324;28;20061;-63
2024/02/07 09:23:31;;;;;;;6.43;2.65;;;;;;;8.65;100.00;96513.78;5033245;28;20042;-64
2024/02/07 09:25:57;;;;;;;5.47;1.98;;;;;;;8.59;100.00;96529.13;5023051;28;20056;-64
2024/02/07 09:28:25;;;;;;;3.15;1.38;;;;;;;8.76;100.00;96536.25;5027972;28;20049;-63
2024/02/07 09:30:52;;;;;;;7.03;1.83;;;;;;;8.77;100.00;96532.47;5023618;28;20041;-63
2024/02/07 09:33:18;;;;;;;3.85;1.70;;;;;;;8.84;100.00;96524.16;5025859;28;20096;-60
2024/02/07 09:35:45;;;;;;;7.10;2.05;;;;;;;8.85;100.00;96515.78;5030606;28;20048;-62
2024/02/07 09:38:12;;;;;;;4.35;1.42;;;;;;;8.73;100.00;96517.09;5031538;28;20041;-62
2024/02/07 09:40:38;;;;;;;3.92;1.92;;;;;;;8.64;100.00;96519.44;5027629;28;20143;-62
2024/02/07 09:43:05;;;;;;;4.32;1.80;;;;;;;8.48;100.00;96508.53;5030758;28;20582;-61
2024/02/07 09:45:36;;;;;;;5.32;2.05;;;;;;;8.29;100.00;96513.53;5032537;28;20534;-62
2024/02/07 09:48:21;;;;;;;5.53;2.50;;;;;;;8.13;100.00;96510.72;5024981;28;20501;-61
2024/02/07 09:50:49;;;;;;;8.73;2.28;;;;;;;8.06;100.00;96518.19;5028322;28;20055;-61
2024/02/07 09:53:19;;;;;;;5.90;2.53;;;;;;;8.02;100.00;96509.81;5027227;28;20056;-62
2024/02/07 09:55:46;;;;;;;5.60;2.28;;;;;;;8.06;100.00;96504.72;5029747;28;20128;-61
2024/02/07 09:58:13;;;;;;;3.88;2.05;;;;;;;8.14;100.00;96504.25;5036224;28;20048;-62
2024/02/07 10:00:40;;;;;;;5.65;2.13;;;;;;;8.22;100.00;96508.34;5033843;28;20124;-62
2024/02/07 10:03:13;;;;;;;6.00;1.95;;;;;;;8.36;100.00;96507.91;5035896;28;20040;-63
2024/02/07 10:05:50;;;;;;;4.63;2.00;;;;;;;8.45;100.00;96503.66;5031792;28;20042;-63
2024/02/07 10:08:17;;;;;;;5.30;1.70;;;;;;;8.53;100.00;96508.59;5023712;28;20041;-62
2024/02/07 10:10:47;;;;;;;3.20;1.50;;;;;;;8.57;100.00;96508.88;5033313;28;20243;-63
2024/02/07 10:13:15;;;;;;;4.60;1.60;;;;;;;8.64;100.00;96500.56;5024085;28;20520;-63
2024/02/07 10:15:43;;;;;;;6.30;1.40;;;;;;;8.56;100.00;96508.06;5019511;28;20517;-62
2024/02/07 10:18:11;;;;;;;3.85;1.58;;;;;;;8.57;100.00;96512.41;5026267;28;20543;-63
2024/02/07 10:20:38;;;;;;;3.58;1.50;;;;;;;8.73;100.00;96507.09;5031253;28;20412;-62
2024/02/07 10:23:06;;;;;;;4.25;1.27;;;;;;;8.89;100.00;96504.47;5021882;28;20509;-63
2024/02/07 10:25:34;;;;;;;3.58;1.55;;;;;;;8.70;100.00;96497.63;5028100;28;20525;-63
2024/02/07 10:28:05;;;;;;;2.42;1.15;;;;;;;8.76;100.00;96503.03;5024598;28;20122;-63
2024/02/07 10:30:32;;;;;;;3.65;1.27;;;;;;;8.82;100.00;96504.72;5018077;28;20528;-63
2024/02/07 10:32:59;;;;;;;3.90;1.60;;;;;;;8.84;100.00;96495.28;5029076;28;20631;-63
2024/02/07 10:35:26;;;;;;;4.20;1.98;;;;;;;8.69;100.00;96496.00;5023982;28;21172;-62
2024/02/07 10:37:55;;;;;;;2.05;1.08;;;;;;;8.68;100.00;96488.16;5028488;28;20034;-59
2024/02/07 10:40:22;;;;;;;3.63;1.13;;;;;;;8.88;100.00;96500.94;5024105;28;20501;-59
2024/02/07 10:42:57;;;;;;;2.35;1.13;;;;;;;8.89;100.00;96497.19;5022520;28;20053;-61
2024/02/07 10:45:24;;;;;;;2.25;1.10;;;;;;;8.84;100.00;96497.97;5023590;28;20041;-60
2024/02/07 10:47:52;;;;;;;4.30;1.52;;;;;;;9.03;100.00;96496.72;5019662;28;20047;-59
2024/02/07 10:50:21;;;;;;;6.13;2.83;;;;;;;8.85;100.00;96480.69;5025802;28;20116;-60
2024/02/07 10:52:49;;;;;;;5.22;1.23;;;;;;;8.96;100.00;96488.84;5026702;28;20099;-59
2024/02/07 10:55:16;;;;;;;3.17;1.20;;;;;;;8.92;100.00;96488.56;5028181;28;20413;-59
2024/02/07 10:57:52;;;;;;;3.67;1.20;;;;;;;9.13;100.00;96487.84;5028848;28;20548;-60
2024/02/07 11:00:19;;;;;;;3.58;1.30;;;;;;;9.18;100.00;96479.75;5029393;28;20041;-60
2024/02/07 11:02:50;;;;;;;2.90;1.20;;;;;;;9.09;100.00;96477.56;5021427;28;20052;-58
2024/02/07 11:05:18;;;;;;;2.92;1.23;;;;;;;9.12;100.00;96473.53;5022754;28;20045;-60
2024/02/07 11:07:46;;;;;;;4.38;1.25;;;;;;;9.23;100.00;96453.59;5020955;28;20049;-58
2024/02/07 11:10:13;;;;;;;3.55;1.08;;;;;;;9.30;100.00;96458.72;5024772;28;20519;-59
2024/02/07 11:12:43;;;;;;;2.88;1.10;;;;;;;9.45;100.00;96457.97;5031947;28;20103;-60
2024/02/07 11:15:10;;;;;;;3.45;1.25;;;;;;;9.61;100.00;96452.56;5016356;28;20356;-60
2024/02/07 11:17:37;;;;;;;2.70;1.10;;;;;;;9.45;100.00;96441.75;5026803;28;20042;-60
2024/02/07 11:20:04;;;;;;;2.35;0.90;;;;;;;9.73;100.00;96452.31;5034356;28;20070;-59
2024/02/07 11:22:39;;;;;;;2.08;1.00;;;;;;;9.62;100.00;96441.47;5024901;28;20163;-61
2024/02/07 11:25:08;;;;;;;2.45;1.10;;;;;;;9.63;100.00;96443.09;5023482;28;20053;-59
2024/02/07 11:27:40;;;;;;;2.65;1.00;;;;;;;9.69;100.00;96432.31;5025895;28;20045;-60
2024/02/07 11:30:10;;;;;;;2.03;0.90;;;;;;;9.62;100.00;96436.06;5030740;28;20044;-60
2024/02/07 11:32:40;;;;;;;1.75;0.80;;;;;;;9.76;100.00;96436.38;5018582;28;20056;-59
2024/02/07 11:35:09;;;;;;;2.85;1.30;;;;;;;9.51;100.00;96415.50;5018874;28;20509;-58
2024/02/07 11:37:37;;;;;;;6.97;1.10;;;;;;;9.59;100.00;96430.41;5026334;28;20037;-58
2024/02/07 11:40:06;;;;;;;1.83;0.85;;;;;;;9.72;100.00;96415.53;5026593;28;20048;-57
2024/02/07 11:42:38;;;;;;;4.55;1.38;;;;;;;9.88;100.00;96419.84;5025649;28;20182;-59
2024/02/07 11:45:05;;;;;;;;;;;;;;;9.97;100.00;96425.56;5037008;28;20049;-60
2024/02/07 11:47:40;;;;;;;6.20;0.93;;;;;;;9.97;100.00;96412.03;5021954;28;19925;-59
2024/02/07 11:50:07;;;;;;;5.10;1.60;;;;;;;9.86;100.00;96419.34;5024363;28;20720;-59
2024/02/07 11:52:35;;;;;;;2.78;1.23;;;;;;;9.91;100.00;96437.44;5020195;28;20045;-60
2024/02/07 11:55:06;;;;;;;2.67;1.25;;;;;;;9.56;100.00;96420.94;5028055;28;20134;-60
2024/02/07 11:57:33;;;;;;;1.48;0.80;;;;;;;9.67;100.00;96402.03;5028546;28;20133;-60
2024/02/07 12:00:01;;;;;;;2.28;0.90;;;;;;;9.80;100.00;96408.78;5029645;28;20045;-61
2024/02/07 12:02:30;;;;;;;4.38;0.98;;;;;;;9.61;100.00;96399.31;5027782;28;20456;-61
2024/02/07 12:04:57;;;;;;;3.58;1.05;;;;;;;9.48;100.00;96397.94;5022608;28;20054;-60
2024/02/07 12:07:26;;;;;;;2.97;1.17;;;;;;;9.69;100.00;96389.84;5021914;28;20049;-59
2024/02/07 12:09:54;;;;;;;2.60;0.80;;;;;;;9.72;100.00;96407.41;5024590;28;20046;-60
2024/02/07 12:12:21;;;;;;;3.55;1.40;;;;;;;9.60;100.00;96399.59;5033305;28;20052;-60
2024/02/07 12:14:50;;;;;;;2.85;1.00;;;;;;;9.83;100.00;96392.84;5025935;28;20495;-59
2024/02/07 12:17:17;;;;;;;2.38;0.60;;;;;;;9.65;100.00;96388.78;5023562;28;20045;-60
2024/02/07 12:19:44;;;;;;;1.20;0.70;;;;;;;9.61;100.00;96387.69;5024651;28;20049;-60
2024/02/07 12:22:18;;;;;;;1.30;0.70;;;;;;;9.39;100.00;96394.16;5026902;28;20440;-60
2024/02/07 12:24:45;;;;;;;2.00;0.90;;;;;;;9.53;100.00;96377.41;5037305;28;20567;-61
2024/02/07 12:27:13;;;;;;;2.40;0.90;;;;;;;9.45;100.00;96389.59;5020521;28;20230;-60
2024/02/07 12:29:54;;;;;;;2.95;0.90;;;;;;;9.65;100.00;96390.69;5021521;28;20045;-60
2024/02/07 12:32:21;;;;;;;1.17;0.70;;;;;;;9.24;100.00;96382.28;5023116;28;20100;-60
2024/02/07 12:34:48;;;;;;;1.67;0.77;;;;;;;9.40;100.00;96381.47;5033561;28;20049;-59
2024/02/07 12:37:16;;;;;;;3.00;0.90;;;;;;;9.58;100.00;96380.16;5030113;28;20086;-60
2024/02/07 12:39:47;;;;;;;2.35;0.75;;;;;;;9.64;100.00;96381.75;5034628;28;20045;-59